Terminal Aerodrome Forecast
Issued by NWS Raleigh/Durham, NC

Home | Current Version | Previous Version | Text Only | Print | Product List | Glossary On
Versions: 1 2 3 4 5 6 7 8 9 10 11 12 13 14 15 16 17 18 19 20 21 22 23 24 25 26 27 28 29 30 31 32 33 34 35 36 37 38 39 40
000
FTUS42 KRAH 300324 AAB
TAFRDU
TAF AMD
KRDU 300324Z 3003/3024 02007KT P6SM VCSH SCT025 BKN035
      TEMPO 3003/3006 4SM -SHRA BR OVC025
     FM300600 05004KT 5SM BR BKN015
     FM301500 05007KT P6SM OVC050 PROB30 3018/3024 4SM TSRA
      BKN025CB=

USA.gov is the U.S. government's official web portal to all federal, state and local government web resources and services.